createdAt,value
2022-08-24T00:01:55.518Z,3.50
2022-08-24T00:04:23.919Z,3.80
2022-08-24T00:06:52.203Z,3.57
2022-08-24T00:09:19.891Z,3.70
2022-08-24T00:11:47.782Z,3.77
2022-08-24T00:14:14.945Z,4.20
2022-08-24T00:16:42.627Z,4.20
2022-08-24T00:19:11.155Z,4.10
2022-08-24T00:21:38.743Z,3.87
2022-08-24T00:24:07.151Z,3.73
2022-08-24T00:26:35.338Z,3.50
2022-08-24T00:29:07.494Z,3.40
2022-08-24T00:31:35.751Z,3.47
2022-08-24T00:34:03.527Z,3.33
2022-08-24T00:36:31.243Z,3.27
2022-08-24T00:38:59.083Z,3.07
2022-08-24T00:41:27.435Z,3.10
2022-08-24T00:44:05.662Z,3.10
2022-08-24T00:47:04.905Z,3.00
2022-08-24T00:50:01.239Z,2.77
2022-08-24T00:52:56.575Z,2.77
2022-08-24T00:55:37.055Z,2.80
2022-08-24T00:58:17.157Z,2.73
2022-08-24T01:00:58.975Z,2.73
2022-08-24T01:03:27.932Z,2.73
2022-08-24T01:05:56.564Z,2.70
2022-08-24T01:08:24.988Z,2.90
2022-08-24T01:11:19.248Z,2.67
2022-08-24T01:13:49.828Z,2.77
2022-08-24T01:16:38.828Z,2.80
2022-08-24T01:19:21.228Z,2.80
2022-08-24T01:23:02.530Z,2.90
2022-08-24T01:25:33.093Z,2.90
2022-08-24T01:28:09.349Z,3.10
2022-08-24T01:30:37.356Z,3.20
2022-08-24T01:33:09.563Z,3.10
2022-08-24T01:35:39.324Z,3.20
2022-08-24T01:38:10.368Z,3.30
2022-08-24T01:40:50.907Z,3.33
2022-08-24T01:43:18.340Z,3.33
2022-08-24T01:45:45.969Z,3.37
2022-08-24T01:48:15.201Z,3.27
2022-08-24T01:50:52.582Z,3.20
2022-08-24T01:53:22.300Z,3.20
2022-08-24T01:55:50.133Z,3.10
2022-08-24T01:58:17.968Z,3.00
2022-08-24T02:00:45.421Z,2.97
2022-08-24T02:03:14.500Z,2.83
2022-08-24T02:05:45.449Z,3.00
2022-08-24T02:08:15.726Z,2.93
2022-08-24T02:10:45.687Z,2.83
2022-08-24T02:13:22.402Z,2.93
2022-08-24T02:15:49.778Z,2.80
2022-08-24T02:18:17.380Z,2.87
2022-08-24T02:20:45.390Z,3.10
2022-08-24T02:23:13.281Z,3.00
2022-08-24T02:25:40.961Z,3.20
2022-08-24T02:28:08.848Z,3.37
2022-08-24T02:30:36.217Z,3.30
2022-08-24T02:33:03.900Z,3.60
2022-08-24T02:35:31.958Z,3.63
2022-08-24T02:37:59.142Z,3.83
2022-08-24T02:40:28.157Z,3.97
2022-08-24T02:42:56.733Z,3.70
2022-08-24T02:45:24.389Z,4.07
2022-08-24T02:47:51.933Z,4.00
2022-08-24T02:50:21.289Z,4.00
2022-08-24T02:52:48.565Z,4.13
2022-08-24T02:55:19.881Z,4.63
2022-08-24T02:57:50.593Z,4.90
2022-08-24T03:00:21.445Z,4.20
2022-08-24T03:02:53.071Z,4.70
2022-08-24T03:05:23.186Z,4.27
2022-08-24T03:07:52.806Z,4.07
2022-08-24T03:10:21.358Z,4.23
2022-08-24T03:12:50.306Z,4.33
2022-08-24T03:15:22.434Z,3.97
2022-08-24T03:17:50.831Z,4.00
2022-08-24T03:20:21.953Z,3.93
2022-08-24T03:22:49.578Z,3.80
2022-08-24T03:25:18.954Z,4.10
2022-08-24T03:27:46.638Z,3.97
2022-08-24T03:30:16.354Z,3.83
2022-08-24T03:32:44.950Z,4.07
2022-08-24T03:35:13.719Z,4.17
2022-08-24T03:37:41.311Z,4.10
2022-08-24T03:40:22.218Z,4.47
2022-08-24T03:42:50.816Z,3.93
2022-08-24T03:45:19.975Z,4.00
2022-08-24T03:47:47.624Z,3.97
2022-08-24T03:50:15.352Z,3.73
2022-08-24T03:52:42.978Z,3.87
2022-08-24T03:55:11.191Z,3.50
2022-08-24T03:57:38.387Z,3.37
2022-08-24T04:00:15.949Z,3.27
2022-08-24T04:02:50.559Z,3.40
2022-08-24T04:05:21.627Z,3.40
2022-08-24T04:07:49.207Z,3.30
2022-08-24T04:10:16.763Z,3.47
2022-08-24T04:12:45.582Z,3.40
2022-08-24T04:15:14.632Z,3.37
2022-08-24T04:17:42.316Z,3.33
2022-08-24T04:20:10.673Z,3.23
2022-08-24T04:22:40.603Z,3.30
2022-08-24T04:25:10.843Z,3.30
2022-08-24T04:27:41.138Z,3.50
2022-08-24T04:30:14.164Z,3.33
2022-08-24T04:32:59.339Z,3.40
2022-08-24T04:35:26.937Z,3.27
2022-08-24T04:37:54.400Z,3.23
2022-08-24T04:40:22.950Z,3.27
2022-08-24T04:42:52.042Z,3.10
2022-08-24T04:45:20.601Z,3.27
2022-08-24T04:47:47.728Z,3.27
2022-08-24T04:50:15.331Z,3.37
2022-08-24T04:52:43.650Z,3.50
2022-08-24T04:55:13.284Z,3.27
2022-08-24T04:57:41.116Z,3.50
2022-08-24T05:00:10.609Z,3.33
2022-08-24T05:02:44.902Z,3.40
2022-08-24T05:05:14.353Z,3.63
2022-08-24T05:07:42.480Z,3.57
2022-08-24T05:10:11.144Z,3.50
2022-08-24T05:12:38.776Z,3.27
2022-08-24T05:15:10.346Z,3.40
2022-08-24T05:17:42.833Z,3.60
2022-08-24T05:20:17.956Z,3.20
2022-08-24T05:22:45.580Z,3.17
2022-08-24T05:25:12.586Z,3.27
2022-08-24T05:27:40.220Z,3.13
2022-08-24T05:30:09.181Z,3.27
2022-08-24T05:32:37.930Z,3.23
2022-08-24T05:35:09.532Z,3.23
2022-08-24T05:37:44.357Z,3.27
2022-08-24T05:40:22.131Z,3.23
2022-08-24T05:42:58.619Z,3.30
2022-08-24T05:45:29.552Z,3.10
2022-08-24T05:48:01.313Z,3.07
2022-08-24T05:51:00.568Z,2.97
2022-08-24T05:53:39.776Z,2.93
2022-08-24T05:56:18.571Z,2.80
2022-08-24T05:58:51.981Z,2.80
2022-08-24T06:01:29.268Z,2.70
2022-08-24T06:04:02.546Z,2.70
2022-08-24T06:06:37.693Z,2.70
2022-08-24T06:09:13.021Z,2.60
2022-08-24T06:11:48.881Z,2.50
2022-08-24T06:14:26.767Z,2.50
2022-08-24T06:17:03.155Z,2.40
2022-08-24T06:19:34.738Z,2.60
2022-08-24T06:22:06.942Z,2.50
2022-08-24T06:25:00.934Z,2.50
2022-08-24T06:27:33.910Z,2.53
2022-08-24T06:30:11.429Z,2.90
2022-08-24T06:32:49.192Z,2.90
2022-08-24T06:35:33.252Z,3.20
2022-08-24T06:38:06.030Z,3.30
2022-08-24T06:40:38.147Z,3.43
2022-08-24T06:43:08.790Z,3.13
2022-08-24T06:45:57.831Z,2.90
2022-08-24T06:48:34.150Z,2.77
2022-08-24T06:51:15.042Z,3.00
2022-08-24T06:53:47.530Z,3.00
2022-08-24T06:56:20.994Z,3.10
2022-08-24T06:58:51.235Z,2.90
2022-08-24T07:01:29.223Z,3.10
2022-08-24T07:03:57.791Z,3.27
2022-08-24T07:06:43.131Z,3.13
2022-08-24T07:09:10.869Z,3.40
2022-08-24T07:11:38.402Z,3.27
2022-08-24T07:14:07.075Z,2.97
2022-08-24T07:16:35.083Z,3.00
2022-08-24T07:19:06.052Z,2.70
2022-08-24T07:21:34.020Z,2.40
2022-08-24T07:24:03.254Z,2.50
2022-08-24T07:26:34.644Z,2.40
2022-08-24T07:29:30.580Z,2.50
2022-08-24T07:32:01.730Z,3.73
2022-08-24T07:34:37.260Z,3.10
2022-08-24T07:37:06.072Z,2.30
2022-08-24T07:39:34.951Z,1.80
2022-08-24T07:42:12.636Z,1.90
2022-08-24T07:44:40.260Z,2.53
2022-08-24T07:47:34.280Z,2.00
2022-08-24T07:49:56.477Z,1.63
2022-08-24T07:52:23.672Z,2.10
2022-08-24T07:54:51.344Z,2.30
2022-08-24T07:57:19.228Z,2.00
2022-08-24T07:59:47.557Z,2.23
2022-08-24T08:03:47.386Z,3.90
2022-08-24T08:06:19.228Z,2.30
2022-08-24T08:08:48.820Z,2.40
2022-08-24T08:11:16.444Z,4.10
2022-08-24T08:13:44.218Z,2.57
2022-08-24T08:16:11.991Z,1.70
2022-08-24T08:18:39.152Z,2.00
2022-08-24T08:21:31.049Z,2.20
2022-08-24T08:24:18.018Z,2.80
2022-08-24T08:26:52.737Z,2.83
2022-08-24T08:29:34.977Z,2.83
2022-08-24T08:32:02.954Z,2.90
2022-08-24T08:34:31.223Z,2.57
2022-08-24T08:37:00.074Z,7.10
2022-08-24T08:39:27.929Z,10.87
2022-08-24T08:42:46.429Z,5.70
2022-08-24T08:45:35.322Z,2.63
2022-08-24T08:49:00.953Z,1.80
2022-08-24T08:52:16.010Z,1.40
2022-08-24T08:55:23.389Z,1.10
2022-08-24T08:58:38.985Z,1.23
2022-08-24T09:01:57.486Z,1.80
2022-08-24T09:05:15.866Z,1.83
2022-08-24T09:08:36.426Z,1.53
2022-08-24T09:11:41.506Z,3.50
2022-08-24T09:14:36.975Z,5.77
2022-08-24T09:17:30.057Z,3.40
2022-08-24T09:20:13.374Z,3.00
2022-08-24T09:22:48.246Z,2.17
2022-08-24T09:25:26.433Z,2.20
2022-08-24T09:28:20.634Z,3.13
2022-08-24T09:31:10.333Z,4.23
2022-08-24T09:34:23.213Z,8.00
2022-08-24T09:37:31.430Z,6.80
2022-08-24T09:40:44.797Z,3.00
2022-08-24T09:43:49.938Z,2.70
2022-08-24T09:46:52.154Z,3.80
2022-08-24T09:50:08.691Z,6.50
2022-08-24T09:52:56.531Z,5.40
2022-08-24T09:55:57.270Z,6.30
2022-08-24T09:58:51.835Z,8.20
2022-08-24T10:01:59.541Z,8.70
2022-08-24T10:04:51.181Z,8.03
2022-08-24T10:08:26.918Z,4.77
2022-08-24T10:11:46.276Z,7.30
2022-08-24T10:14:36.398Z,7.87
2022-08-24T10:17:47.490Z,7.37
2022-08-24T10:20:59.376Z,7.50
2022-08-24T10:24:06.175Z,7.70
2022-08-24T10:26:51.292Z,6.30
2022-08-24T10:30:07.839Z,4.80
2022-08-24T10:33:06.789Z,2.20
2022-08-24T10:36:14.923Z,2.70
2022-08-24T10:39:11.827Z,2.70
2022-08-24T10:42:10.572Z,1.90
2022-08-24T10:45:38.803Z,2.10
2022-08-24T10:48:29.532Z,1.90
2022-08-24T10:51:44.768Z,1.80
2022-08-24T10:54:16.640Z,1.80
2022-08-24T10:57:15.020Z,2.00
2022-08-24T11:00:22.576Z,1.90
2022-08-24T11:03:13.743Z,1.70
2022-08-24T11:05:53.535Z,1.70
2022-08-24T11:08:37.183Z,1.80
2022-08-24T11:11:17.411Z,2.37
2022-08-24T11:14:09.847Z,2.03
2022-08-24T11:16:48.155Z,1.50
2022-08-24T11:19:36.906Z,1.60
2022-08-24T11:22:40.900Z,1.60
2022-08-24T11:25:40.549Z,1.70
2022-08-24T11:28:32.409Z,1.70
2022-08-24T11:31:03.947Z,2.53
2022-08-24T11:34:05.360Z,2.13
2022-08-24T11:36:38.360Z,2.10
2022-08-24T11:39:25.184Z,2.23
2022-08-24T11:42:07.824Z,2.27
2022-08-24T11:44:42.756Z,2.13
2022-08-24T11:47:48.716Z,2.20
2022-08-24T11:51:36.392Z,1.80
2022-08-24T11:54:30.301Z,1.70
2022-08-24T11:57:34.786Z,1.70
2022-08-24T12:00:22.845Z,1.80
2022-08-24T12:03:07.966Z,1.87
2022-08-24T12:06:09.004Z,4.27
2022-08-24T12:09:12.025Z,5.60
2022-08-24T12:12:09.911Z,4.27
2022-08-24T12:14:44.588Z,6.13
2022-08-24T12:17:29.052Z,6.30
2022-08-24T12:20:12.741Z,1.90
2022-08-24T12:22:43.943Z,2.57
2022-08-24T12:25:32.630Z,2.43
2022-08-24T12:27:59.761Z,5.30
2022-08-24T12:30:29.605Z,3.87
2022-08-24T12:33:10.734Z,2.27
2022-08-24T12:35:45.420Z,1.60
2022-08-24T12:38:39.461Z,1.30
2022-08-24T12:41:24.525Z,1.27
2022-08-24T12:43:55.825Z,1.20
2022-08-24T12:46:26.261Z,1.30
2022-08-24T12:49:03.952Z,1.40
2022-08-24T12:52:30.978Z,1.20
2022-08-24T12:55:42.970Z,1.70
2022-08-24T12:58:53.961Z,2.00
2022-08-24T13:01:27.999Z,3.50
2022-08-24T13:05:05.510Z,2.80
2022-08-24T13:07:46.497Z,1.30
2022-08-24T13:10:43.969Z,1.73
2022-08-24T13:13:22.061Z,4.30
2022-08-24T13:15:52.961Z,3.93
2022-08-24T13:18:20.414Z,2.63
2022-08-24T13:20:50.516Z,2.50
2022-08-24T13:23:20.952Z,2.60
2022-08-24T13:25:47.887Z,1.90
2022-08-24T13:28:21.449Z,1.80
2022-08-24T13:31:14.880Z,1.60
2022-08-24T13:34:00.910Z,1.80
2022-08-24T13:36:52.218Z,2.30
2022-08-24T13:39:34.881Z,3.00
2022-08-24T13:42:16.378Z,3.80
2022-08-24T13:45:25.815Z,4.57
2022-08-24T13:48:07.964Z,4.03
2022-08-24T13:50:48.778Z,3.10
2022-08-24T13:53:32.383Z,2.60
2022-08-24T13:56:33.364Z,2.57
2022-08-24T13:59:36.894Z,2.57
2022-08-24T14:02:51.990Z,2.30
2022-08-24T14:05:46.150Z,1.80
2022-08-24T14:08:46.049Z,1.80
2022-08-24T14:11:58.551Z,1.40
2022-08-24T14:14:59.023Z,1.50
2022-08-24T14:17:55.769Z,1.40
2022-08-24T14:20:41.603Z,1.40
2022-08-24T14:23:34.346Z,1.50
2022-08-24T14:26:41.863Z,1.50
2022-08-24T14:29:18.333Z,1.40
2022-08-24T14:31:57.438Z,1.40
2022-08-24T14:34:48.715Z,1.50
2022-08-24T14:37:18.659Z,1.90
2022-08-24T14:40:26.925Z,1.77
2022-08-24T14:43:11.235Z,1.70
2022-08-24T14:46:10.672Z,1.83
2022-08-24T14:49:15.447Z,1.63
2022-08-24T14:51:50.907Z,1.70
2022-08-24T14:55:04.597Z,1.70
2022-08-24T14:58:10.432Z,1.73
2022-08-24T15:01:44.585Z,1.80
2022-08-24T15:04:52.596Z,1.80
2022-08-24T15:07:34.784Z,1.83
2022-08-24T15:10:12.239Z,1.90
2022-08-24T15:13:29.708Z,2.20
2022-08-24T15:16:03.867Z,2.40
2022-08-24T15:19:02.668Z,2.60
2022-08-24T15:21:41.547Z,2.70
2022-08-24T15:24:40.189Z,3.07
2022-08-24T15:27:18.292Z,3.67
2022-08-24T15:30:08.069Z,3.93
2022-08-24T15:32:53.911Z,4.37
2022-08-24T15:35:38.351Z,4.70
2022-08-24T15:38:29.823Z,4.17
2022-08-24T15:41:22.725Z,4.50
2022-08-24T15:43:56.324Z,4.40
2022-08-24T15:46:35.686Z,4.40
2022-08-24T15:49:28.651Z,3.70
2022-08-24T15:52:04.676Z,3.07
2022-08-24T15:54:46.223Z,4.20
2022-08-24T15:57:25.553Z,3.60
2022-08-24T16:00:12.477Z,3.47
2022-08-24T16:02:39.722Z,4.03
2022-08-24T16:05:25.211Z,3.90
2022-08-24T16:08:04.898Z,5.63
2022-08-24T16:10:52.353Z,6.53
2022-08-24T16:13:25.530Z,7.70
2022-08-24T16:16:03.433Z,10.10
2022-08-24T16:18:53.414Z,7.63
2022-08-24T16:21:42.910Z,5.37
2022-08-24T16:24:19.565Z,5.33
2022-08-24T16:26:46.926Z,3.77
2022-08-24T16:29:36.309Z,4.70
2022-08-24T16:32:30.100Z,5.87
2022-08-24T16:35:10.897Z,7.27
2022-08-24T16:37:39.229Z,8.03
2022-08-24T16:40:08.667Z,7.70
2022-08-24T16:42:37.410Z,7.70
2022-08-24T16:45:07.808Z,8.37
2022-08-24T16:47:35.734Z,7.93
2022-08-24T16:50:05.228Z,8.87
2022-08-24T16:52:32.721Z,8.27
2022-08-24T16:55:01.380Z,8.73
2022-08-24T16:57:36.167Z,7.63
2022-08-24T17:00:15.395Z,7.00
2022-08-24T17:02:48.026Z,7.10
2022-08-24T17:05:17.742Z,8.30
2022-08-24T17:07:46.019Z,7.70
2022-08-24T17:10:17.680Z,7.70
2022-08-24T17:12:45.883Z,6.87
2022-08-24T17:15:15.958Z,7.40
2022-08-24T17:17:59.881Z,7.30
2022-08-24T17:20:29.275Z,5.60
2022-08-24T17:22:57.364Z,4.67
2022-08-24T17:25:27.063Z,4.30
2022-08-24T17:27:57.307Z,3.93
2022-08-24T17:30:25.758Z,3.80
2022-08-24T17:32:55.743Z,3.87
2022-08-24T17:35:24.375Z,3.47
2022-08-24T17:37:53.219Z,3.40
2022-08-24T17:40:26.493Z,3.03
2022-08-24T17:42:54.360Z,3.27
2022-08-24T17:45:22.944Z,3.40
2022-08-24T17:47:52.267Z,3.73
2022-08-24T17:50:23.540Z,3.67
2022-08-24T17:52:58.827Z,3.77
2022-08-24T17:55:28.072Z,3.70
2022-08-24T17:57:55.168Z,2.93
2022-08-24T18:00:22.339Z,2.70
2022-08-24T18:02:50.013Z,2.50
2022-08-24T18:05:18.320Z,2.30
2022-08-24T18:07:53.920Z,2.17
2022-08-24T18:10:27.863Z,2.30
2022-08-24T18:13:00.051Z,2.20
2022-08-24T18:15:34.516Z,2.37
2022-08-24T18:18:08.922Z,2.37
2022-08-24T18:20:40.973Z,2.37
2022-08-24T18:23:11.844Z,2.20
2022-08-24T18:25:51.016Z,2.40
2022-08-24T18:28:23.894Z,2.43
2022-08-24T18:30:51.712Z,2.50
2022-08-24T18:33:19.132Z,3.00
2022-08-24T18:35:47.508Z,3.30
2022-08-24T18:38:15.047Z,3.53
2022-08-24T18:40:52.415Z,3.60
2022-08-24T18:43:24.932Z,3.57
2022-08-24T18:45:53.669Z,3.70
2022-08-24T18:48:22.536Z,3.30
2022-08-24T18:50:51.504Z,3.13
2022-08-24T18:53:19.449Z,3.33
2022-08-24T18:55:47.854Z,3.57
2022-08-24T18:58:15.394Z,3.67
2022-08-24T19:00:43.305Z,3.10
2022-08-24T19:03:15.893Z,3.10
2022-08-24T19:05:45.269Z,3.00
2022-08-24T19:08:12.952Z,3.07
2022-08-24T19:10:40.862Z,3.57
2022-08-24T19:13:15.683Z,4.23
2022-08-24T19:15:47.475Z,4.40
2022-08-24T19:18:17.793Z,4.03
2022-08-24T19:20:51.878Z,4.30
2022-08-24T19:23:30.033Z,3.20
2022-08-24T19:25:58.808Z,3.20
2022-08-24T19:28:27.366Z,2.87
2022-08-24T19:30:57.546Z,2.80
2022-08-24T19:33:35.574Z,2.63
2022-08-24T19:36:03.493Z,2.70
2022-08-24T19:38:31.023Z,2.50
2022-08-24T19:40:59.490Z,2.40
2022-08-24T19:43:28.792Z,2.30
2022-08-24T19:46:06.212Z,2.43
2022-08-24T19:48:37.707Z,2.53
2022-08-24T19:51:08.955Z,2.53
2022-08-24T19:53:38.221Z,2.90
2022-08-24T19:56:07.252Z,2.57
2022-08-24T19:58:53.822Z,2.60
2022-08-24T20:01:26.061Z,2.60
2022-08-24T20:03:54.210Z,2.77
2022-08-24T20:06:23.881Z,3.30
2022-08-24T20:08:52.532Z,3.37
2022-08-24T20:11:20.664Z,3.77
2022-08-24T20:13:53.047Z,4.23
2022-08-24T20:16:22.665Z,4.37
2022-08-24T20:18:50.247Z,4.37
2022-08-24T20:21:18.443Z,4.77
2022-08-24T20:23:46.228Z,4.97
2022-08-24T20:26:14.272Z,5.30
2022-08-24T20:28:49.315Z,5.33
2022-08-24T20:31:18.336Z,5.37
2022-08-24T20:33:46.287Z,6.97
2022-08-24T20:36:29.564Z,7.33
2022-08-24T20:39:00.407Z,7.10
2022-08-24T20:41:28.653Z,6.80
2022-08-24T20:43:56.830Z,7.10
2022-08-24T20:46:26.594Z,7.00
2022-08-24T20:48:55.542Z,6.30
2022-08-24T20:51:25.462Z,6.23
2022-08-24T20:53:53.848Z,5.63
2022-08-24T20:56:33.879Z,5.83
2022-08-24T20:59:09.688Z,4.77
2022-08-24T21:01:42.812Z,5.57
2022-08-24T21:04:10.905Z,4.60
2022-08-24T21:06:43.848Z,4.93
2022-08-24T21:09:14.184Z,4.50
2022-08-24T21:11:43.548Z,4.37
2022-08-24T21:14:11.188Z,3.97
2022-08-24T21:16:41.920Z,3.97
2022-08-24T21:19:12.848Z,3.53
2022-08-24T21:21:42.509Z,3.53
2022-08-24T21:24:10.834Z,3.67
2022-08-24T21:26:38.896Z,3.60
2022-08-24T21:29:09.164Z,3.57
2022-08-24T21:31:37.490Z,3.30
2022-08-24T21:34:24.384Z,3.37
2022-08-24T21:36:54.339Z,3.20
2022-08-24T21:39:21.933Z,3.17
2022-08-24T21:41:49.430Z,3.30
2022-08-24T21:44:16.913Z,3.20
2022-08-24T21:46:44.571Z,3.10
2022-08-24T21:49:12.491Z,3.07
2022-08-24T21:51:40.632Z,3.30
2022-08-24T21:54:09.374Z,3.23
2022-08-24T21:56:36.838Z,3.00
2022-08-24T21:59:04.413Z,3.10
2022-08-24T22:01:32.019Z,2.90
2022-08-24T22:04:00.689Z,3.10
2022-08-24T22:06:31.562Z,3.10
2022-08-24T22:09:00.841Z,2.80
2022-08-24T22:11:29.611Z,2.90
2022-08-24T22:13:57.534Z,2.83
2022-08-24T22:16:25.585Z,2.90
2022-08-24T22:18:53.071Z,2.80
2022-08-24T22:21:26.166Z,3.00
2022-08-24T22:23:55.245Z,2.87
2022-08-24T22:26:28.370Z,2.97
2022-08-24T22:28:56.745Z,2.90
2022-08-24T22:31:30.271Z,2.80
2022-08-24T22:34:01.554Z,2.70
2022-08-24T22:36:29.809Z,2.90
2022-08-24T22:38:58.818Z,2.73
2022-08-24T22:41:28.153Z,2.50
2022-08-24T22:44:15.399Z,2.60
2022-08-24T22:46:43.139Z,2.47
2022-08-24T22:49:11.458Z,2.50
2022-08-24T22:51:39.958Z,2.53
2022-08-24T22:54:08.062Z,2.57
2022-08-24T22:56:41.418Z,2.80
2022-08-24T22:59:14.842Z,2.83
2022-08-24T23:01:45.946Z,2.87
2022-08-24T23:04:18.886Z,3.00
2022-08-24T23:06:47.259Z,3.00
2022-08-24T23:09:14.923Z,3.07
2022-08-24T23:11:43.310Z,3.10
2022-08-24T23:14:12.915Z,3.27
2022-08-24T23:16:48.390Z,3.20
2022-08-24T23:19:41.271Z,3.17
2022-08-24T23:22:12.534Z,3.00
2022-08-24T23:24:41.791Z,3.00
2022-08-24T23:27:11.243Z,2.73
2022-08-24T23:29:39.674Z,2.87
2022-08-24T23:32:07.467Z,2.63
2022-08-24T23:34:36.415Z,2.73
2022-08-24T23:37:05.223Z,2.63
2022-08-24T23:39:33.259Z,2.60
2022-08-24T23:42:00.687Z,2.60
2022-08-24T23:44:30.011Z,2.60
2022-08-24T23:46:58.475Z,2.60
2022-08-24T23:49:28.423Z,2.63
2022-08-24T23:51:56.343Z,2.70
2022-08-24T23:54:25.572Z,2.70
2022-08-24T23:56:53.883Z,2.80
2022-08-24T23:59:27.309Z,2.77
